Historyczne dane pomiarowe

Dodano dane terminowe – wersja testowa.

Dane z okresu 1951-2019

Wersja bazy: 1.34 [2019-03-16, lista zmian], aktualizacja planowana na 2019-04-15

Dane meteo z obszaru Polski uzyskane na podstawie danych udostępnionych przez Instytut Meteorologii i Gospodarki Wodnej – Państwowy Instytut Badawczy.

 

Wybierz Datę:    

       

TemperaturaWilgotnośćWiatrCiśnienieOpadyŚniegCzas trwania zjawisk
 Stacja t tx tn tng RH VA  wxwx mslp ppp RRR   cm mm wxwxwxwxwxwxwx
1990-12-13 0.8 1.4 0.0 -1.2 97.3- 8.0 1.7---- 1.2------------
1990-12-13------------ 1.2--x---------
1990-12-14 0.2 1.1 -0.9 -1.4 98.0- 8.0 4.0---- 3.1------------
1990-12-14------------ 3.1--x---------
1990-12-15 -0.3 0.2 -1.0 -2.8 98.5- 5.3 1.7---- 0.3-- 2---------
1990-12-15------------ 0.3--x---------
1990-12-16 -0.5 0.3 -1.0 -1.4 93.3- 7.0 1.3---- 0.1-- 2---------
1990-12-16------------ 0.1--x---------
1990-12-17 -1.7 -0.6 -2.1 -3.3 93.5- 6.3 2.3---- 0.1-- 2---------
1990-12-17------------ 0.1--x---------
1990-12-18 -1.4 -0.5 -2.6 -3.3 88.3- 6.7 2.0---- 0.1-- 2---------
1990-12-18------------ 0.1--x---------
1990-12-19 -0.8 -0.1 -2.1 -2.8 93.5- 7.3 0.7---- 0.3-- 2---------
1990-12-19------------ 0.3--x---------
1990-12-20 -0.8 0.6 -2.7 -4.0 96.3- 4.0 2.3---- 0.1-- 2---------
1990-12-20------------ 0.1--x---------
1990-12-21 0.7 1.4 0.1 -4.8 92.8- 8.0 2.3---- 4.6-- 1---------
1990-12-21------------ 4.6--x---------
1990-12-22 -0.9 1.3 -1.5 -3.8 96.8- 4.3 0.7---- 0.0------------
1990-12-23 -0.2 0.5 -2.1 -4.8 95.3- 2.3 0.7---- 0.0------------
1990-12-24 -2.6 2.9 -5.1 -6.8 73.8- 0.0 5.0---- 0.0------------
1990-12-25 -1.2 0.7 -4.6 -6.6 61.3- 0.7 6.7---- 0.0------------
1990-12-26 -0.6 1.1 -2.6 -4.6 81.5- 3.0 9.3---- 0.3------------
1990-12-26------------ 0.3--x---------
1990-12-27 2.7 6.6 -1.0 -3.3 87.0- 3.7 3.7---- 0.0------------
1990-12-28 1.4 4.7 -1.5 -2.1 80.8- 2.0 4.0---- 0.0------------
1990-12-29 2.3 4.8 -0.5 -3.3 84.0- 6.0 7.0---- 3.6------------
1990-12-29------------ 3.6--x---------
1990-12-30 7.3 10.0 -0.5 -1.0 83.5- 3.7 3.0---- 0.1------------
1990-12-30------------ 0.1--x---------
1990-12-31 3.5 6.0 1.6 -1.3 94.5- 0.7 2.0---- 1.6------------
1990-12-31------------ 1.6--x---------
1991-01-01 3.1 6.4 0.5 -3.6 87.8- 5.7 3.3---- 0.0------------
1991-01-02 2.6 4.3 -1.0 -2.8 81.5- 5.3 6.0---- 3.2------------
1991-01-03 7.8 10.3 4.2 1.7 81.5- 7.7 4.7---- 1.6------------
1991-01-04 7.7 10.7 4.0 3.5 86.5- 7.7 3.3---- 0.1------------
1991-01-05 4.3 6.7 2.3 -0.7 72.8- 2.7 3.3---- 1.9------------
1991-01-06 3.6 7.0 1.0 -2.3 72.8- 6.0 4.7---- 0.0------------
1991-01-07 4.1 6.0 1.0 -1.0 78.3- 7.0 5.3---- 0.2------------
1991-01-08 6.4 8.6 2.9 -1.1 78.0- 2.0 5.0---- 0.0------------
1991-01-09 7.3 10.5 1.9 1.2 74.0- 7.3 5.7---- 0.0------------
1991-01-10 10.5 15.7 6.3 3.5 72.5- 6.3 6.0---- 0.4------------
1991-01-11 9.2 15.7 5.8 3.9 76.8- 4.3 2.0---- 1.5------------
372.0 ms

 

Źródłem pochodzenia danych jest Instytut Meteorologii i Gospodarki Wodnej – Państwowy Instytut Badawczy. Dane Instytutu Meteorologii i Gospodarki Wodnej – Państwowego Instytutu Badawczego zostały przetworzone.

Dane źródłowe można odnaleźć na stronie https://dane.imgw.pl